Dianalund, Denmark
Current Conditions -  °F | °C
As of 2:20 PM on Thursday 23 Oct 2014 (Local Time) from EKRK Reporting Station
Overcast Overcast  
Wind Chill: 54°   Ceiling: 1900
Heat Index: 54°   Visibility: 6mi
Dew Point: 48°   Wind: 16mph
Humidity: 82%   Direction: 150°SSE
Pressure: 30.15"   Gusts: NA
Location:  55.53°N, 11.49°E
Report Text: EKRK 231220Z AUTO 15014KT 9999NDV FEW016/// BKN019///OVC025/// 12/09 Q1021
Loading
Personal Weather Stations






























Interactive Weather Map
Tropical Storm Tracking
New forecast layout! Learn more

10-Day Weather Forecast

Advertisements
Track Severe Weather on mobile